»·PEaware :: WAT169 KSAN-KLAS

WAT169 :: KSAN-KLAS

FLIGHT INFORMATION

Flight Status: Arrived
Operator:
Walker Air Transport
More flights by this operator :: More flights under this callsign
Pilot: Marty P. (27464)
Aircraft: BOEING 737-800
(B738)
More flights by this aircraft type
Origin: KSAN San Diego Intl-Lindbergh
United States
Destination: KLAS McCarran Intl
United States
More flights between these airports :: More routes between these airports
Route: PADRZ2 CHKNN SEBBY YELAH MISEN KEPEC6
File this flight plan on PilotEdge
Remarks:
Altitude:
(Current/Filed)
27,000ft
Speed:
(Current/Filed)
470kts
Departed: 11-Jul-20 09:11 PM
Arrived: 11-Jul-20 09:57 PM
Distance/Time
Traveled:
225nm/0:45
Distance/Time
To Go:
Arrived

Flight Plot

Page will automatically refresh every two minutes.

Flight plan parsing failed; only flown route is shown


Map Options




Map Legend


Flown Route
Filed Route
Departure Airport
Arrival Airport
Navaid (VOR, NDB)
Fix

Horizontal Profiles

Position Reports

Time Latitude Longitude Heading Altitude Ground
Speed
11-Jul-20 20:46 32.733007 -117.199143 93 27ft 0kts
11-Jul-20 20:47 32.733007 -117.199143 93 27ft 0kts
11-Jul-20 20:48 32.733007 -117.199143 93 27ft 0kts
11-Jul-20 20:49 32.733007 -117.199143 93 27ft 0kts
11-Jul-20 20:50 32.733007 -117.199143 93 27ft 0kts
11-Jul-20 20:51 32.733007 -117.199143 93 27ft 0kts
11-Jul-20 20:52 32.733007 -117.199143 93 27ft 0kts
11-Jul-20 20:53 32.733007 -117.199143 93 27ft 0kts
11-Jul-20 20:54 32.733007 -117.199143 93 27ft 0kts
11-Jul-20 20:55 32.733007 -117.199143 93 27ft 0kts
11-Jul-20 20:56 32.733007 -117.199143 93 27ft 0kts
11-Jul-20 20:57 32.733007 -117.199143 93 27ft 0kts
11-Jul-20 20:58 32.733007 -117.199143 93 27ft 0kts
11-Jul-20 20:59 32.733010 -117.199205 93 27ft 2kts
11-Jul-20 21:00 32.733029 -117.199852 62 27ft 2kts
11-Jul-20 21:01 32.732824 -117.200011 12 27ft 0kts
11-Jul-20 21:02 32.732928 -117.199980 14 27ft 3kts
11-Jul-20 21:03 32.734587 -117.199427 40 27ft 10kts
11-Jul-20 21:04 32.733719 -117.194593 105 27ft 21kts
11-Jul-20 21:05 32.732172 -117.188226 106 27ft 18kts
11-Jul-20 21:06 32.730714 -117.182201 105 27ft 21kts
11-Jul-20 21:07 32.729516 -117.176748 76 27ft 0kts
11-Jul-20 21:08 32.729517 -117.176739 76 27ft 0kts
11-Jul-20 21:09 32.730236 -117.176186 299 27ft 16kts
11-Jul-20 21:10 32.739966 -117.215146 291 1027ft 190kts
11-Jul-20 21:11 32.777484 -117.277166 300 3859ft 254kts
11-Jul-20 21:12 32.818473 -117.348192 307 7314ft 271kts
11-Jul-20 21:13 32.865842 -117.421028 306 10450ft 288kts
11-Jul-20 21:14 32.936195 -117.480629 4 11418ft 371kts
11-Jul-20 21:15 33.038384 -117.444379 21 13986ft 388kts
11-Jul-20 21:16 33.141065 -117.398875 22 16448ft 403kts
11-Jul-20 21:17 33.247674 -117.350010 22 18669ft 417kts
11-Jul-20 21:18 33.357493 -117.300669 21 20719ft 429kts
11-Jul-20 21:19 33.471484 -117.251389 21 22569ft 441kts
11-Jul-20 21:20 33.588451 -117.200579 21 24115ft 454kts
11-Jul-20 21:21 33.708766 -117.148129 20 25564ft 465kts
11-Jul-20 21:22 33.831219 -117.094641 20 26886ft 475kts
11-Jul-20 21:23 33.958412 -117.038987 20 27002ft 506kts
11-Jul-20 21:24 34.089486 -116.980868 20 26975ft 503kts
11-Jul-20 21:25 34.220508 -116.920740 20 27099ft 504kts
11-Jul-20 21:26 34.351917 -116.862498 19 27016ft 506kts
11-Jul-20 21:27 34.485261 -116.806929 18 26982ft 507kts
11-Jul-20 21:28 34.618235 -116.751526 19 26981ft 507kts
11-Jul-20 21:29 34.751014 -116.692931 20 26981ft 508kts
11-Jul-20 21:30 34.870193 -116.617976 33 26983ft 478kts
11-Jul-20 21:31 34.978199 -116.521812 37 26981ft 481kts
11-Jul-20 21:32 35.081084 -116.423990 39 24541ft 460kts
11-Jul-20 21:33 35.168528 -116.321960 45 24011ft 457kts
11-Jul-20 21:34 35.258586 -116.213572 46 22323ft 466kts
11-Jul-20 21:35 35.346250 -116.102779 47 19617ft 441kts
11-Jul-20 21:36 35.428508 -115.995298 47 18445ft 422kts
11-Jul-20 21:37 35.510060 -115.891202 46 16357ft 423kts
11-Jul-20 21:38 35.589751 -115.789989 46 14056ft 396kts
11-Jul-20 21:39 35.660212 -115.700479 46 13208ft 330kts
11-Jul-20 21:40 35.722809 -115.621960 44 13028ft 323kts
11-Jul-20 21:41 35.802404 -115.574393 6 13027ft 324kts
11-Jul-20 21:42 35.892463 -115.567443 2 13016ft 324kts
11-Jul-20 21:43 35.974430 -115.531393 48 12894ft 317kts
11-Jul-20 21:44 36.012281 -115.435334 70 11369ft 312kts
11-Jul-20 21:45 36.028896 -115.338844 93 10775ft 278kts
11-Jul-20 21:46 36.023426 -115.241135 95 9495ft 290kts
11-Jul-20 21:47 36.016518 -115.142980 96 8326ft 286kts
11-Jul-20 21:48 36.008510 -115.044767 96 6975ft 291kts
11-Jul-20 21:49 36.002298 -114.945922 95 5291ft 275kts
11-Jul-20 21:50 36.030961 -114.881057 5 5017ft 208kts
11-Jul-20 21:51 36.076869 -114.897650 275 5027ft 179kts
11-Jul-20 21:52 36.073352 -114.957793 269 4877ft 171kts
11-Jul-20 21:53 36.073633 -115.011595 268 4046ft 152kts
11-Jul-20 21:54 36.073651 -115.063872 269 3199ft 154kts
11-Jul-20 21:55 36.073663 -115.118142 268 2347ft 158kts
11-Jul-20 21:57 36.074073 -115.149043 295 2191ft 27kts
11-Jul-20 21:58 36.075769 -115.151594 333 2191ft 13kts
11-Jul-20 21:59 36.078737 -115.152866 81 2191ft 4kts
11-Jul-20 22:00 36.078660 -115.149365 94 2191ft 9kts
11-Jul-20 22:01 36.079781 -115.147348 64 2191ft 3kts
11-Jul-20 22:02 36.079912 -115.147059 61 2191ft 0kts
11-Jul-20 22:03 36.079912 -115.147059 61 2191ft 0kts
11-Jul-20 22:04 36.079912 -115.147059 61 2191ft 0kts
11-Jul-20 22:05 36.079912 -115.147059 61 2191ft 0kts
11-Jul-20 22:06 36.079912 -115.147059 61 2191ft 0kts

Navigation Log

Ident Type
Flight plan parsing failed, navigation log unavailable